sensor_id;sensor_type;location;lat;lon;timestamp;P1;durP1;ratioP1;P2;durP2;ratioP2
12762;SDS011;6445;52.490;13.378;2024-03-08T00:01:52;38.58;;;21.20;;
12762;SDS011;6445;52.490;13.378;2024-03-08T00:04:17;33.15;;;19.40;;
12762;SDS011;6445;52.490;13.378;2024-03-08T00:06:42;33.42;;;19.30;;
12762;SDS011;6445;52.490;13.378;2024-03-08T00:09:11;34.72;;;19.83;;
12762;SDS011;6445;52.490;13.378;2024-03-08T00:11:36;32.90;;;18.75;;
12762;SDS011;6445;52.490;13.378;2024-03-08T00:14:01;34.28;;;20.02;;
12762;SDS011;6445;52.490;13.378;2024-03-08T00:16:27;31.48;;;19.67;;
12762;SDS011;6445;52.490;13.378;2024-03-08T00:18:52;33.38;;;19.42;;
12762;SDS011;6445;52.490;13.378;2024-03-08T00:21:17;34.80;;;20.35;;
12762;SDS011;6445;52.490;13.378;2024-03-08T00:23:43;35.20;;;20.80;;
12762;SDS011;6445;52.490;13.378;2024-03-08T00:26:08;34.42;;;19.38;;
12762;SDS011;6445;52.490;13.378;2024-03-08T00:28:33;35.85;;;19.52;;
12762;SDS011;6445;52.490;13.378;2024-03-08T00:31:02;35.15;;;19.63;;
12762;SDS011;6445;52.490;13.378;2024-03-08T00:33:27;36.97;;;20.52;;
12762;SDS011;6445;52.490;13.378;2024-03-08T00:35:53;34.50;;;20.10;;
12762;SDS011;6445;52.490;13.378;2024-03-08T00:38:21;31.52;;;19.05;;
12762;SDS011;6445;52.490;13.378;2024-03-08T00:40:46;32.08;;;19.25;;
12762;SDS011;6445;52.490;13.378;2024-03-08T00:43:11;36.45;;;19.33;;
12762;SDS011;6445;52.490;13.378;2024-03-08T00:45:37;33.50;;;19.45;;
12762;SDS011;6445;52.490;13.378;2024-03-08T00:48:03;33.28;;;19.70;;
12762;SDS011;6445;52.490;13.378;2024-03-08T00:50:28;32.97;;;18.77;;
12762;SDS011;6445;52.490;13.378;2024-03-08T00:52:54;31.02;;;19.08;;
12762;SDS011;6445;52.490;13.378;2024-03-08T00:55:19;33.05;;;20.33;;
12762;SDS011;6445;52.490;13.378;2024-03-08T00:57:44;36.90;;;20.48;;
12762;SDS011;6445;52.490;13.378;2024-03-08T01:00:10;37.35;;;19.55;;
12762;SDS011;6445;52.490;13.378;2024-03-08T01:02:37;32.50;;;19.58;;
12762;SDS011;6445;52.490;13.378;2024-03-08T01:05:03;37.05;;;19.95;;
12762;SDS011;6445;52.490;13.378;2024-03-08T01:07:31;33.20;;;19.88;;
12762;SDS011;6445;52.490;13.378;2024-03-08T01:09:56;34.53;;;18.83;;
12762;SDS011;6445;52.490;13.378;2024-03-08T01:12:22;37.83;;;20.95;;
12762;SDS011;6445;52.490;13.378;2024-03-08T01:14:47;35.00;;;19.48;;
12762;SDS011;6445;52.490;13.378;2024-03-08T01:17:12;36.97;;;19.77;;
12762;SDS011;6445;52.490;13.378;2024-03-08T01:19:38;35.97;;;19.67;;
12762;SDS011;6445;52.490;13.378;2024-03-08T01:22:03;32.22;;;18.65;;
12762;SDS011;6445;52.490;13.378;2024-03-08T01:24:28;33.00;;;19.52;;
12762;SDS011;6445;52.490;13.378;2024-03-08T01:26:54;34.97;;;19.90;;
12762;SDS011;6445;52.490;13.378;2024-03-08T01:29:19;37.95;;;20.45;;
12762;SDS011;6445;52.490;13.378;2024-03-08T01:31:44;37.60;;;20.58;;
12762;SDS011;6445;52.490;13.378;2024-03-08T01:34:09;35.83;;;19.08;;
12762;SDS011;6445;52.490;13.378;2024-03-08T01:36:35;37.65;;;20.75;;
12762;SDS011;6445;52.490;13.378;2024-03-08T01:39:02;35.63;;;19.95;;
12762;SDS011;6445;52.490;13.378;2024-03-08T01:41:31;31.30;;;19.00;;
12762;SDS011;6445;52.490;13.378;2024-03-08T01:43:57;36.30;;;20.45;;
12762;SDS011;6445;52.490;13.378;2024-03-08T01:46:22;35.22;;;19.50;;
12762;SDS011;6445;52.490;13.378;2024-03-08T01:48:48;33.63;;;19.63;;
12762;SDS011;6445;52.490;13.378;2024-03-08T01:51:15;33.38;;;19.15;;
12762;SDS011;6445;52.490;13.378;2024-03-08T01:53:41;33.95;;;19.88;;
12762;SDS011;6445;52.490;13.378;2024-03-08T01:56:10;31.48;;;18.92;;
12762;SDS011;6445;52.490;13.378;2024-03-08T01:58:37;36.53;;;19.60;;
12762;SDS011;6445;52.490;13.378;2024-03-08T02:01:03;33.53;;;19.33;;
12762;SDS011;6445;52.490;13.378;2024-03-08T02:03:29;35.05;;;20.02;;
12762;SDS011;6445;52.490;13.378;2024-03-08T02:05:56;31.48;;;18.83;;
12762;SDS011;6445;52.490;13.378;2024-03-08T02:08:23;36.60;;;20.10;;
12762;SDS011;6445;52.490;13.378;2024-03-08T02:10:49;33.65;;;18.35;;
12762;SDS011;6445;52.490;13.378;2024-03-08T02:13:14;34.97;;;18.90;;
12762;SDS011;6445;52.490;13.378;2024-03-08T02:15:56;36.65;;;19.70;;
12762;SDS011;6445;52.490;13.378;2024-03-08T02:18:24;32.95;;;19.50;;
12762;SDS011;6445;52.490;13.378;2024-03-08T02:20:53;34.17;;;19.60;;
12762;SDS011;6445;52.490;13.378;2024-03-08T02:23:19;33.05;;;18.55;;
12762;SDS011;6445;52.490;13.378;2024-03-08T02:25:45;37.33;;;20.90;;
12762;SDS011;6445;52.490;13.378;2024-03-08T02:28:10;37.92;;;19.63;;
12762;SDS011;6445;52.490;13.378;2024-03-08T02:30:36;33.92;;;19.27;;
12762;SDS011;6445;52.490;13.378;2024-03-08T02:33:02;35.67;;;19.67;;
12762;SDS011;6445;52.490;13.378;2024-03-08T02:35:27;33.10;;;19.25;;
12762;SDS011;6445;52.490;13.378;2024-03-08T02:37:52;35.60;;;20.38;;
12762;SDS011;6445;52.490;13.378;2024-03-08T02:40:18;37.60;;;20.10;;
12762;SDS011;6445;52.490;13.378;2024-03-08T02:42:43;39.15;;;19.30;;
12762;SDS011;6445;52.490;13.378;2024-03-08T02:45:08;36.92;;;19.85;;
12762;SDS011;6445;52.490;13.378;2024-03-08T02:47:35;36.95;;;19.88;;
12762;SDS011;6445;52.490;13.378;2024-03-08T02:50:00;31.95;;;19.48;;
12762;SDS011;6445;52.490;13.378;2024-03-08T02:52:26;34.15;;;19.58;;
12762;SDS011;6445;52.490;13.378;2024-03-08T02:54:51;33.08;;;18.58;;
12762;SDS011;6445;52.490;13.378;2024-03-08T02:57:16;30.77;;;18.00;;
12762;SDS011;6445;52.490;13.378;2024-03-08T02:59:43;36.95;;;18.38;;
12762;SDS011;6445;52.490;13.378;2024-03-08T03:02:08;32.28;;;18.63;;
12762;SDS011;6445;52.490;13.378;2024-03-08T03:04:35;34.72;;;20.42;;
12762;SDS011;6445;52.490;13.378;2024-03-08T03:07:00;36.53;;;20.02;;
12762;SDS011;6445;52.490;13.378;2024-03-08T03:09:26;32.53;;;19.38;;
12762;SDS011;6445;52.490;13.378;2024-03-08T03:11:52;33.40;;;19.25;;
12762;SDS011;6445;52.490;13.378;2024-03-08T03:14:21;35.90;;;19.52;;
12762;SDS011;6445;52.490;13.378;2024-03-08T03:16:47;36.53;;;20.60;;
12762;SDS011;6445;52.490;13.378;2024-03-08T03:19:12;35.65;;;20.15;;
12762;SDS011;6445;52.490;13.378;2024-03-08T03:21:38;35.53;;;19.98;;
12762;SDS011;6445;52.490;13.378;2024-03-08T03:24:03;34.22;;;20.00;;
12762;SDS011;6445;52.490;13.378;2024-03-08T03:26:30;36.15;;;21.02;;
12762;SDS011;6445;52.490;13.378;2024-03-08T03:28:56;39.60;;;20.20;;
12762;SDS011;6445;52.490;13.378;2024-03-08T03:31:22;32.00;;;19.80;;
12762;SDS011;6445;52.490;13.378;2024-03-08T03:33:49;31.98;;;19.10;;
12762;SDS011;6445;52.490;13.378;2024-03-08T03:36:16;38.97;;;21.10;;
12762;SDS011;6445;52.490;13.378;2024-03-08T03:38:42;35.25;;;20.25;;
12762;SDS011;6445;52.490;13.378;2024-03-08T03:41:08;35.20;;;20.48;;
12762;SDS011;6445;52.490;13.378;2024-03-08T03:43:37;35.35;;;20.95;;
12762;SDS011;6445;52.490;13.378;2024-03-08T03:46:06;37.80;;;21.02;;
12762;SDS011;6445;52.490;13.378;2024-03-08T03:48:32;37.50;;;20.83;;
12762;SDS011;6445;52.490;13.378;2024-03-08T03:50:57;35.72;;;20.35;;
12762;SDS011;6445;52.490;13.378;2024-03-08T03:53:23;35.28;;;20.92;;
12762;SDS011;6445;52.490;13.378;2024-03-08T03:55:48;38.05;;;20.83;;
12762;SDS011;6445;52.490;13.378;2024-03-08T03:58:14;42.00;;;21.27;;
12762;SDS011;6445;52.490;13.378;2024-03-08T04:00:39;36.60;;;21.60;;
12762;SDS011;6445;52.490;13.378;2024-03-08T04:03:05;38.00;;;20.73;;
12762;SDS011;6445;52.490;13.378;2024-03-08T04:05:30;41.08;;;21.48;;
12762;SDS011;6445;52.490;13.378;2024-03-08T04:07:56;36.97;;;20.73;;
12762;SDS011;6445;52.490;13.378;2024-03-08T04:10:21;37.63;;;20.50;;
12762;SDS011;6445;52.490;13.378;2024-03-08T04:12:47;36.40;;;21.48;;
12762;SDS011;6445;52.490;13.378;2024-03-08T04:15:12;38.53;;;21.10;;
12762;SDS011;6445;52.490;13.378;2024-03-08T04:17:37;38.65;;;21.83;;
12762;SDS011;6445;52.490;13.378;2024-03-08T04:20:03;36.67;;;22.05;;
12762;SDS011;6445;52.490;13.378;2024-03-08T04:22:34;38.50;;;21.90;;
12762;SDS011;6445;52.490;13.378;2024-03-08T04:25:01;39.10;;;22.60;;
12762;SDS011;6445;52.490;13.378;2024-03-08T04:27:27;39.88;;;23.30;;
12762;SDS011;6445;52.490;13.378;2024-03-08T04:29:52;36.90;;;22.17;;
12762;SDS011;6445;52.490;13.378;2024-03-08T04:32:17;37.13;;;21.45;;
12762;SDS011;6445;52.490;13.378;2024-03-08T04:34:42;43.97;;;22.60;;
12762;SDS011;6445;52.490;13.378;2024-03-08T04:37:09;38.65;;;22.38;;
12762;SDS011;6445;52.490;13.378;2024-03-08T04:39:38;45.15;;;24.15;;
12762;SDS011;6445;52.490;13.378;2024-03-08T04:42:03;39.25;;;22.25;;
12762;SDS011;6445;52.490;13.378;2024-03-08T04:44:31;40.00;;;23.17;;
12762;SDS011;6445;52.490;13.378;2024-03-08T04:46:58;42.05;;;23.33;;
12762;SDS011;6445;52.490;13.378;2024-03-08T04:49:23;44.30;;;23.38;;
12762;SDS011;6445;52.490;13.378;2024-03-08T04:51:49;43.90;;;24.08;;
12762;SDS011;6445;52.490;13.378;2024-03-08T04:54:14;40.40;;;22.83;;
12762;SDS011;6445;52.490;13.378;2024-03-08T04:56:39;45.95;;;24.48;;
12762;SDS011;6445;52.490;13.378;2024-03-08T04:59:04;43.45;;;24.52;;
12762;SDS011;6445;52.490;13.378;2024-03-08T05:01:32;47.00;;;24.75;;
12762;SDS011;6445;52.490;13.378;2024-03-08T05:03:58;37.75;;;23.15;;
12762;SDS011;6445;52.490;13.378;2024-03-08T05:06:23;36.28;;;22.92;;
12762;SDS011;6445;52.490;13.378;2024-03-08T05:08:48;41.50;;;23.40;;
12762;SDS011;6445;52.490;13.378;2024-03-08T05:11:13;43.40;;;24.48;;
12762;SDS011;6445;52.490;13.378;2024-03-08T05:13:39;44.72;;;24.58;;
12762;SDS011;6445;52.490;13.378;2024-03-08T05:16:05;39.75;;;23.25;;
12762;SDS011;6445;52.490;13.378;2024-03-08T05:18:32;39.67;;;23.45;;
12762;SDS011;6445;52.490;13.378;2024-03-08T05:20:57;41.00;;;22.42;;
12762;SDS011;6445;52.490;13.378;2024-03-08T05:23:23;39.85;;;23.70;;
12762;SDS011;6445;52.490;13.378;2024-03-08T05:25:48;39.63;;;23.85;;
12762;SDS011;6445;52.490;13.378;2024-03-08T05:28:13;45.70;;;25.15;;
12762;SDS011;6445;52.490;13.378;2024-03-08T05:30:39;42.25;;;23.15;;
12762;SDS011;6445;52.490;13.378;2024-03-08T05:33:04;44.67;;;23.85;;
12762;SDS011;6445;52.490;13.378;2024-03-08T05:35:29;41.83;;;24.77;;
12762;SDS011;6445;52.490;13.378;2024-03-08T05:37:55;44.33;;;24.63;;
12762;SDS011;6445;52.490;13.378;2024-03-08T05:40:20;43.35;;;24.27;;
12762;SDS011;6445;52.490;13.378;2024-03-08T05:42:45;42.28;;;24.15;;
12762;SDS011;6445;52.490;13.378;2024-03-08T05:45:11;42.63;;;23.70;;
12762;SDS011;6445;52.490;13.378;2024-03-08T05:47:36;44.58;;;25.70;;
12762;SDS011;6445;52.490;13.378;2024-03-08T05:50:04;47.30;;;25.45;;
12762;SDS011;6445;52.490;13.378;2024-03-08T05:52:30;47.45;;;25.83;;
12762;SDS011;6445;52.490;13.378;2024-03-08T05:54:55;44.38;;;25.45;;
12762;SDS011;6445;52.490;13.378;2024-03-08T05:57:20;46.65;;;25.85;;
12762;SDS011;6445;52.490;13.378;2024-03-08T05:59:48;46.53;;;25.23;;
12762;SDS011;6445;52.490;13.378;2024-03-08T06:02:13;45.33;;;25.40;;
12762;SDS011;6445;52.490;13.378;2024-03-08T06:04:43;46.75;;;25.55;;
12762;SDS011;6445;52.490;13.378;2024-03-08T06:07:09;44.88;;;25.50;;
12762;SDS011;6445;52.490;13.378;2024-03-08T06:09:37;44.78;;;25.65;;
12762;SDS011;6445;52.490;13.378;2024-03-08T06:12:02;47.42;;;27.08;;
12762;SDS011;6445;52.490;13.378;2024-03-08T06:14:29;42.80;;;25.25;;
12762;SDS011;6445;52.490;13.378;2024-03-08T06:16:55;43.10;;;24.42;;
12762;SDS011;6445;52.490;13.378;2024-03-08T06:19:20;45.05;;;24.73;;
12762;SDS011;6445;52.490;13.378;2024-03-08T06:21:45;41.13;;;24.13;;
12762;SDS011;6445;52.490;13.378;2024-03-08T06:24:10;38.95;;;23.20;;
12762;SDS011;6445;52.490;13.378;2024-03-08T06:26:36;39.97;;;22.92;;
12762;SDS011;6445;52.490;13.378;2024-03-08T06:29:02;44.13;;;22.55;;
12762;SDS011;6445;52.490;13.378;2024-03-08T06:31:31;42.60;;;23.08;;
12762;SDS011;6445;52.490;13.378;2024-03-08T06:33:57;47.35;;;23.60;;
12762;SDS011;6445;52.490;13.378;2024-03-08T06:36:22;38.67;;;23.60;;
12762;SDS011;6445;52.490;13.378;2024-03-08T06:38:48;38.20;;;21.52;;
12762;SDS011;6445;52.490;13.378;2024-03-08T06:41:14;39.22;;;23.05;;
12762;SDS011;6445;52.490;13.378;2024-03-08T06:43:42;41.72;;;23.25;;
12762;SDS011;6445;52.490;13.378;2024-03-08T06:46:08;36.92;;;22.00;;
12762;SDS011;6445;52.490;13.378;2024-03-08T06:48:34;37.38;;;21.88;;
12762;SDS011;6445;52.490;13.378;2024-03-08T06:51:00;37.95;;;22.88;;
12762;SDS011;6445;52.490;13.378;2024-03-08T06:53:25;38.63;;;22.52;;
12762;SDS011;6445;52.490;13.378;2024-03-08T06:55:50;43.90;;;23.42;;
12762;SDS011;6445;52.490;13.378;2024-03-08T06:58:16;38.10;;;22.42;;
12762;SDS011;6445;52.490;13.378;2024-03-08T07:00:41;38.22;;;22.33;;
12762;SDS011;6445;52.490;13.378;2024-03-08T07:03:07;41.00;;;22.45;;
12762;SDS011;6445;52.490;13.378;2024-03-08T07:05:36;36.35;;;20.88;;
12762;SDS011;6445;52.490;13.378;2024-03-08T07:08:02;37.17;;;21.25;;
12762;SDS011;6445;52.490;13.378;2024-03-08T07:10:27;39.42;;;21.10;;
12762;SDS011;6445;52.490;13.378;2024-03-08T07:12:53;37.47;;;21.05;;
12762;SDS011;6445;52.490;13.378;2024-03-08T07:15:19;36.33;;;20.85;;
12762;SDS011;6445;52.490;13.378;2024-03-08T07:17:47;34.00;;;20.15;;
12762;SDS011;6445;52.490;13.378;2024-03-08T07:20:13;34.90;;;20.77;;
12762;SDS011;6445;52.490;13.378;2024-03-08T07:22:40;35.45;;;21.00;;
12762;SDS011;6445;52.490;13.378;2024-03-08T07:25:06;34.47;;;20.95;;
12762;SDS011;6445;52.490;13.378;2024-03-08T07:27:47;106.53;;;59.60;;
12762;SDS011;6445;52.490;13.378;2024-03-08T07:30:13;33.83;;;19.73;;
12762;SDS011;6445;52.490;13.378;2024-03-08T07:32:59;33.75;;;19.75;;
12762;SDS011;6445;52.490;13.378;2024-03-08T07:35:24;35.83;;;19.42;;
12762;SDS011;6445;52.490;13.378;2024-03-08T07:37:52;30.92;;;18.98;;
12762;SDS011;6445;52.490;13.378;2024-03-08T07:40:19;31.77;;;19.52;;
12762;SDS011;6445;52.490;13.378;2024-03-08T07:42:45;31.27;;;19.10;;
12762;SDS011;6445;52.490;13.378;2024-03-08T07:45:10;32.20;;;19.67;;
12762;SDS011;6445;52.490;13.378;2024-03-08T07:47:35;29.50;;;18.95;;
12762;SDS011;6445;52.490;13.378;2024-03-08T07:50:01;33.08;;;19.23;;
12762;SDS011;6445;52.490;13.378;2024-03-08T07:52:27;30.55;;;19.58;;
12762;SDS011;6445;52.490;13.378;2024-03-08T07:54:52;29.98;;;19.23;;
12762;SDS011;6445;52.490;13.378;2024-03-08T07:57:17;33.28;;;20.88;;
12762;SDS011;6445;52.490;13.378;2024-03-08T07:59:43;31.10;;;19.45;;
12762;SDS011;6445;52.490;13.378;2024-03-08T08:02:08;31.75;;;19.73;;
12762;SDS011;6445;52.490;13.378;2024-03-08T08:04:33;34.47;;;19.67;;
12762;SDS011;6445;52.490;13.378;2024-03-08T08:06:58;30.73;;;19.02;;
12762;SDS011;6445;52.490;13.378;2024-03-08T08:09:24;33.08;;;19.58;;
12762;SDS011;6445;52.490;13.378;2024-03-08T08:11:53;32.15;;;19.17;;
12762;SDS011;6445;52.490;13.378;2024-03-08T08:14:22;34.58;;;19.83;;
12762;SDS011;6445;52.490;13.378;2024-03-08T08:16:47;30.50;;;19.73;;
12762;SDS011;6445;52.490;13.378;2024-03-08T08:19:15;31.63;;;20.08;;
12762;SDS011;6445;52.490;13.378;2024-03-08T08:21:40;31.40;;;19.73;;
12762;SDS011;6445;52.490;13.378;2024-03-08T08:24:05;35.92;;;22.17;;
12762;SDS011;6445;52.490;13.378;2024-03-08T08:26:31;36.78;;;24.13;;
12762;SDS011;6445;52.490;13.378;2024-03-08T08:28:58;30.95;;;19.25;;
12762;SDS011;6445;52.490;13.378;2024-03-08T08:31:24;30.73;;;18.83;;
12762;SDS011;6445;52.490;13.378;2024-03-08T08:33:50;27.05;;;18.63;;
12762;SDS011;6445;52.490;13.378;2024-03-08T08:36:15;28.83;;;19.67;;
12762;SDS011;6445;52.490;13.378;2024-03-08T08:38:40;31.77;;;19.92;;
12762;SDS011;6445;52.490;13.378;2024-03-08T08:41:09;29.40;;;18.35;;
12762;SDS011;6445;52.490;13.378;2024-03-08T08:43:34;29.48;;;18.63;;
12762;SDS011;6445;52.490;13.378;2024-03-08T08:46:00;32.22;;;18.67;;
12762;SDS011;6445;52.490;13.378;2024-03-08T08:48:26;27.60;;;18.63;;
12762;SDS011;6445;52.490;13.378;2024-03-08T08:50:53;27.98;;;18.35;;
12762;SDS011;6445;52.490;13.378;2024-03-08T08:53:18;25.35;;;17.83;;
12762;SDS011;6445;52.490;13.378;2024-03-08T08:55:43;24.25;;;18.05;;
12762;SDS011;6445;52.490;13.378;2024-03-08T08:58:10;24.10;;;17.67;;
12762;SDS011;6445;52.490;13.378;2024-03-08T09:00:36;25.20;;;17.40;;
12762;SDS011;6445;52.490;13.378;2024-03-08T09:03:01;26.13;;;17.92;;
12762;SDS011;6445;52.490;13.378;2024-03-08T09:05:27;28.35;;;18.40;;
12762;SDS011;6445;52.490;13.378;2024-03-08T09:07:52;28.58;;;18.65;;
12762;SDS011;6445;52.490;13.378;2024-03-08T09:10:18;26.58;;;18.20;;
12762;SDS011;6445;52.490;13.378;2024-03-08T09:12:43;26.65;;;17.83;;
12762;SDS011;6445;52.490;13.378;2024-03-08T09:15:09;29.15;;;18.52;;
12762;SDS011;6445;52.490;13.378;2024-03-08T09:17:36;28.35;;;18.30;;
12762;SDS011;6445;52.490;13.378;2024-03-08T09:20:04;31.38;;;19.00;;
12762;SDS011;6445;52.490;13.378;2024-03-08T09:22:31;28.85;;;18.40;;
12762;SDS011;6445;52.490;13.378;2024-03-08T09:24:57;28.10;;;18.30;;
12762;SDS011;6445;52.490;13.378;2024-03-08T09:27:22;32.08;;;18.77;;
12762;SDS011;6445;52.490;13.378;2024-03-08T09:29:47;26.83;;;19.10;;
12762;SDS011;6445;52.490;13.378;2024-03-08T09:32:13;29.83;;;18.02;;
12762;SDS011;6445;52.490;13.378;2024-03-08T09:34:38;24.98;;;17.73;;
12762;SDS011;6445;52.490;13.378;2024-03-08T09:37:03;27.40;;;18.50;;
12762;SDS011;6445;52.490;13.378;2024-03-08T09:39:29;28.60;;;18.38;;
12762;SDS011;6445;52.490;13.378;2024-03-08T09:41:54;26.40;;;17.90;;
12762;SDS011;6445;52.490;13.378;2024-03-08T09:44:20;28.40;;;19.08;;
12762;SDS011;6445;52.490;13.378;2024-03-08T09:46:45;27.60;;;18.55;;
12762;SDS011;6445;52.490;13.378;2024-03-08T09:49:16;28.17;;;17.70;;
12762;SDS011;6445;52.490;13.378;2024-03-08T09:51:47;39.17;;;17.27;;
12762;SDS011;6445;52.490;13.378;2024-03-08T09:54:16;22.65;;;16.25;;
12762;SDS011;6445;52.490;13.378;2024-03-08T09:56:42;24.83;;;17.30;;
12762;SDS011;6445;52.490;13.378;2024-03-08T09:59:09;23.20;;;16.20;;
12762;SDS011;6445;52.490;13.378;2024-03-08T10:01:53;25.35;;;16.60;;
12762;SDS011;6445;52.490;13.378;2024-03-08T10:04:21;24.65;;;15.93;;
12762;SDS011;6445;52.490;13.378;2024-03-08T10:06:47;22.35;;;15.65;;
12762;SDS011;6445;52.490;13.378;2024-03-08T10:09:12;24.70;;;16.05;;
12762;SDS011;6445;52.490;13.378;2024-03-08T10:11:39;24.50;;;15.32;;
12762;SDS011;6445;52.490;13.378;2024-03-08T10:14:05;22.83;;;14.70;;
12762;SDS011;6445;52.490;13.378;2024-03-08T10:16:31;24.17;;;15.27;;
12762;SDS011;6445;52.490;13.378;2024-03-08T10:18:56;25.45;;;14.65;;
12762;SDS011;6445;52.490;13.378;2024-03-08T10:21:22;22.90;;;15.45;;
12762;SDS011;6445;52.490;13.378;2024-03-08T10:23:47;20.77;;;14.55;;
12762;SDS011;6445;52.490;13.378;2024-03-08T10:26:13;21.33;;;14.38;;
12762;SDS011;6445;52.490;13.378;2024-03-08T10:28:46;20.13;;;14.45;;
12762;SDS011;6445;52.490;13.378;2024-03-08T10:31:15;21.05;;;15.00;;
12762;SDS011;6445;52.490;13.378;2024-03-08T10:33:41;22.40;;;15.10;;
12762;SDS011;6445;52.490;13.378;2024-03-08T10:36:07;19.92;;;15.23;;
12762;SDS011;6445;52.490;13.378;2024-03-08T10:38:35;21.35;;;15.57;;
12762;SDS011;6445;52.490;13.378;2024-03-08T10:41:01;22.10;;;15.23;;
12762;SDS011;6445;52.490;13.378;2024-03-08T10:43:31;21.75;;;15.40;;
12762;SDS011;6445;52.490;13.378;2024-03-08T10:47:00;20.52;;;14.40;;
12762;SDS011;6445;52.490;13.378;2024-03-08T10:49:16;17.80;;;13.25;;
12762;SDS011;6445;52.490;13.378;2024-03-08T10:51:42;21.85;;;13.70;;
12762;SDS011;6445;52.490;13.378;2024-03-08T10:54:09;20.08;;;13.82;;
12762;SDS011;6445;52.490;13.378;2024-03-08T10:56:36;18.40;;;13.90;;
12762;SDS011;6445;52.490;13.378;2024-03-08T10:59:01;20.02;;;14.57;;
12762;SDS011;6445;52.490;13.378;2024-03-08T11:01:29;20.08;;;14.35;;
12762;SDS011;6445;52.490;13.378;2024-03-08T11:03:54;20.73;;;14.07;;
12762;SDS011;6445;52.490;13.378;2024-03-08T11:06:31;21.23;;;14.48;;
12762;SDS011;6445;52.490;13.378;2024-03-08T11:14:47;20.15;;;14.48;;
12762;SDS011;6445;52.490;13.378;2024-03-08T11:17:15;19.38;;;14.10;;
12762;SDS011;6445;52.490;13.378;2024-03-08T11:19:45;22.50;;;15.20;;
12762;SDS011;6445;52.490;13.378;2024-03-08T11:22:25;23.15;;;15.10;;
12762;SDS011;6445;52.490;13.378;2024-03-08T11:24:53;23.42;;;15.10;;
12762;SDS011;6445;52.490;13.378;2024-03-08T11:27:19;20.85;;;14.38;;
12762;SDS011;6445;52.490;13.378;2024-03-08T11:30:00;21.25;;;14.45;;
12762;SDS011;6445;52.490;13.378;2024-03-08T11:32:35;21.73;;;14.65;;
12762;SDS011;6445;52.490;13.378;2024-03-08T11:35:01;80.50;;;51.75;;
12762;SDS011;6445;52.490;13.378;2024-03-08T11:37:33;27.17;;;18.40;;
12762;SDS011;6445;52.490;13.378;2024-03-08T11:40:02;19.60;;;13.68;;
12762;SDS011;6445;52.490;13.378;2024-03-08T11:42:37;20.45;;;13.50;;
12762;SDS011;6445;52.490;13.378;2024-03-08T11:45:07;19.65;;;13.65;;
12762;SDS011;6445;52.490;13.378;2024-03-08T11:47:34;18.73;;;12.90;;
12762;SDS011;6445;52.490;13.378;2024-03-08T11:50:00;22.50;;;13.73;;
12762;SDS011;6445;52.490;13.378;2024-03-08T11:52:25;21.05;;;13.68;;
12762;SDS011;6445;52.490;13.378;2024-03-08T11:54:54;19.70;;;14.15;;
12762;SDS011;6445;52.490;13.378;2024-03-08T11:57:22;21.42;;;14.20;;
12762;SDS011;6445;52.490;13.378;2024-03-08T11:59:51;17.90;;;12.88;;
12762;SDS011;6445;52.490;13.378;2024-03-08T12:02:17;20.70;;;12.88;;
12762;SDS011;6445;52.490;13.378;2024-03-08T12:04:44;19.10;;;12.70;;
12762;SDS011;6445;52.490;13.378;2024-03-08T12:07:11;15.48;;;10.90;;
12762;SDS011;6445;52.490;13.378;2024-03-08T12:09:37;14.77;;;10.68;;
12762;SDS011;6445;52.490;13.378;2024-03-08T12:12:03;19.85;;;11.88;;
12762;SDS011;6445;52.490;13.378;2024-03-08T12:14:29;17.92;;;11.85;;
12762;SDS011;6445;52.490;13.378;2024-03-08T12:16:55;21.63;;;13.90;;
12762;SDS011;6445;52.490;13.378;2024-03-08T12:19:20;23.00;;;15.45;;
12762;SDS011;6445;52.490;13.378;2024-03-08T12:21:46;27.90;;;15.23;;
12762;SDS011;6445;52.490;13.378;2024-03-08T12:24:15;21.85;;;14.57;;
12762;SDS011;6445;52.490;13.378;2024-03-08T12:26:44;20.10;;;14.48;;
12762;SDS011;6445;52.490;13.378;2024-03-08T12:29:17;22.58;;;14.93;;
12762;SDS011;6445;52.490;13.378;2024-03-08T12:31:45;21.83;;;15.18;;
12762;SDS011;6445;52.490;13.378;2024-03-08T12:34:13;22.15;;;15.05;;
12762;SDS011;6445;52.490;13.378;2024-03-08T12:36:49;23.60;;;15.07;;
12762;SDS011;6445;52.490;13.378;2024-03-08T12:39:18;23.45;;;15.05;;
12762;SDS011;6445;52.490;13.378;2024-03-08T12:41:47;20.92;;;14.10;;
12762;SDS011;6445;52.490;13.378;2024-03-08T12:44:14;22.45;;;14.77;;
12762;SDS011;6445;52.490;13.378;2024-03-08T12:46:39;22.67;;;15.57;;
12762;SDS011;6445;52.490;13.378;2024-03-08T12:49:08;24.08;;;15.38;;
12762;SDS011;6445;52.490;13.378;2024-03-08T12:51:37;23.20;;;15.48;;
12762;SDS011;6445;52.490;13.378;2024-03-08T12:54:03;22.10;;;14.48;;
12762;SDS011;6445;52.490;13.378;2024-03-08T12:56:32;20.02;;;14.55;;
12762;SDS011;6445;52.490;13.378;2024-03-08T12:58:58;22.33;;;14.93;;
12762;SDS011;6445;52.490;13.378;2024-03-08T13:01:24;21.67;;;14.88;;
12762;SDS011;6445;52.490;13.378;2024-03-08T13:03:49;24.02;;;15.45;;
12762;SDS011;6445;52.490;13.378;2024-03-08T13:06:15;20.10;;;13.95;;
12762;SDS011;6445;52.490;13.378;2024-03-08T13:08:40;18.88;;;13.55;;
12762;SDS011;6445;52.490;13.378;2024-03-08T13:11:06;21.55;;;14.88;;
12762;SDS011;6445;52.490;13.378;2024-03-08T13:13:32;22.20;;;15.20;;
12762;SDS011;6445;52.490;13.378;2024-03-08T13:16:00;22.27;;;13.60;;
12762;SDS011;6445;52.490;13.378;2024-03-08T13:18:26;19.10;;;13.18;;
12762;SDS011;6445;52.490;13.378;2024-03-08T13:20:52;20.63;;;14.35;;
12762;SDS011;6445;52.490;13.378;2024-03-08T13:23:19;20.92;;;14.63;;
12762;SDS011;6445;52.490;13.378;2024-03-08T13:25:44;20.90;;;14.10;;
12762;SDS011;6445;52.490;13.378;2024-03-08T13:28:12;22.60;;;14.68;;
12762;SDS011;6445;52.490;13.378;2024-03-08T13:30:38;21.05;;;14.85;;
12762;SDS011;6445;52.490;13.378;2024-03-08T13:33:03;23.13;;;15.55;;
12762;SDS011;6445;52.490;13.378;2024-03-08T13:35:29;21.27;;;14.30;;
12762;SDS011;6445;52.490;13.378;2024-03-08T13:37:55;21.88;;;14.43;;
12762;SDS011;6445;52.490;13.378;2024-03-08T13:40:20;19.05;;;13.32;;
12762;SDS011;6445;52.490;13.378;2024-03-08T13:42:46;18.52;;;13.40;;
12762;SDS011;6445;52.490;13.378;2024-03-08T13:45:13;20.85;;;13.48;;
12762;SDS011;6445;52.490;13.378;2024-03-08T13:47:42;19.08;;;13.63;;
12762;SDS011;6445;52.490;13.378;2024-03-08T13:50:09;17.33;;;12.27;;
12762;SDS011;6445;52.490;13.378;2024-03-08T13:52:38;19.75;;;12.98;;
12762;SDS011;6445;52.490;13.378;2024-03-08T13:55:04;20.90;;;13.63;;
12762;SDS011;6445;52.490;13.378;2024-03-08T13:57:30;22.00;;;13.52;;
12762;SDS011;6445;52.490;13.378;2024-03-08T13:59:56;19.98;;;13.85;;
12762;SDS011;6445;52.490;13.378;2024-03-08T14:02:22;19.25;;;12.88;;
12762;SDS011;6445;52.490;13.378;2024-03-08T14:04:49;21.15;;;13.50;;
12762;SDS011;6445;52.490;13.378;2024-03-08T14:07:15;20.17;;;12.95;;
12762;SDS011;6445;52.490;13.378;2024-03-08T14:09:41;20.20;;;12.77;;
12762;SDS011;6445;52.490;13.378;2024-03-08T14:12:08;19.58;;;12.10;;
12762;SDS011;6445;52.490;13.378;2024-03-08T14:14:34;15.82;;;11.20;;
12762;SDS011;6445;52.490;13.378;2024-03-08T14:17:02;17.45;;;12.32;;
12762;SDS011;6445;52.490;13.378;2024-03-08T14:19:28;17.33;;;12.18;;
12762;SDS011;6445;52.490;13.378;2024-03-08T14:21:55;18.40;;;12.68;;
12762;SDS011;6445;52.490;13.378;2024-03-08T14:24:21;20.27;;;13.25;;